Flight Track Log - Related Links

Times and Time Zones

All times are in EST time to prevent confusion due to time zone crossing. See the OPT332 flight status page for this flight to view local times or setup timezone preferences in your user account.

Time Position Orientation Groundspeed Altitude Reporting Facility
EST Latitude Longitude Course Direction KTS MPH feet Rate Location/Type
Sat 11:02:58 AM 30.1790 -97.6572 178° South 162 186 1,800  Level FlightAware ADS-B
Sat 11:03:09 AM 30.1700 -97.6567 177° South 165 190 2,600 3,412 Climbing FlightAware ADS-B
Sat 11:03:49 AM 30.1471 -97.6766 217° Southwest 169 194 4,700 3,070 Climbing FlightAware ADS-B
Sat 11:03:52 AM 30.1474 -97.6803 275° West 227 261 4,800 1,714 Climbing FlightAware ADS-B
Sat 11:03:56 AM 30.1483 -97.6843 285° West 237 273 4,900 2,571 Climbing FlightAware ADS-B
Sat 11:03:59 AM 30.1496 -97.6881 292° West 241 277 5,100 2,571 Climbing FlightAware ADS-B
Sat 11:04:03 AM 30.1519 -97.6929 299° West 251 289 5,200 3,000 Climbing FlightAware ADS-B
Sat 11:04:09 AM 30.1561 -97.6993 307° West 256 295 5,600 4,286 Climbing FlightAware ADS-B
Sat 11:04:24 AM 30.1674 -97.7150 310° West 246 283 6,700 3,931 Climbing FlightAware ADS-B
Sat 11:04:38 AM 30.1777 -97.7296 309° West 251 289 7,500 3,310 Climbing FlightAware ADS-B
Sat 11:04:53 AM 30.1888 -97.7458 308° West 254 292 8,300 3,333 Climbing FlightAware ADS-B
Sat 11:05:05 AM 30.1975 -97.7587 308° West 254 292 9,000 3,652 Climbing FlightAware ADS-B
Sat 11:05:16 AM 30.2052 -97.7709 306° West 252 290 9,700 3,462 Climbing FlightAware ADS-B
Sat 11:05:31 AM 30.2144 -97.7871 303° West 254 292 10,500 3,360 Climbing FlightAware ADS-B
Sat 11:05:41 AM 30.2207 -97.7987 302° West 257 296 11,100 2,600 Climbing FlightAware ADS-B
Sat 11:06:01 AM 30.2346 -97.8231 303° West 276 318 11,800 1,059 Climbing FlightAware ADS-B
Sat 11:06:32 AM 30.2580 -97.8629 304° West 310 357 12,000 871 Climbing FlightAware ADS-B
Sat 11:07:03 AM 30.2839 -97.9065 305° West 314 361 12,700 2,250 Climbing FlightAware ADS-B
Sat 11:07:28 AM 30.3041 -97.9409 304° West 304 350 14,100 3,353 Climbing FlightAware ADS-B
Sat 11:07:37 AM 30.3117 -97.9514 310° West 306 352 14,600 3,429 Climbing FlightAware ADS-B
Sat 11:07:42 AM 30.3172 -97.9567 320° Northwest 309 356 14,900 3,429 Climbing FlightAware ADS-B
Sat 11:08:12 AM 30.3517 -97.9849 325° Northwest 294 338 16,600 3,100 Climbing FlightAware ADS-B
Sat 11:08:42 AM 30.3845 -98.0133 323° Northwest 290 334 18,000 2,656 Climbing FlightAware ADS-B
Sat 11:09:13 AM 30.4172 -98.0415 323° Northwest 292 336 19,300 2,348 Climbing FlightAware ADS-B
Sat 11:09:28 AM 30.4337 -98.0556 324° Northwest 291 335 19,800 2,000 Climbing FlightAware ADS-B
Sat 11:09:43 AM 30.4507 -98.0703 323° Northwest 297 342 20,300 2,133 Climbing FlightAware ADS-B
Sat 11:10:13 AM 30.4846 -98.0995 323° Northwest 300 345 21,400 2,066 Climbing FlightAware ADS-B
Sat 11:10:44 AM 30.5189 -98.1289 324° Northwest 303 349 22,400 1,967 Climbing FlightAware ADS-B
Sat 11:11:14 AM 30.5529 -98.1582 323° Northwest 305 351 23,400 1,869 Climbing FlightAware ADS-B
Sat 11:11:45 AM 30.5880 -98.1885 323° Northwest 311 358 24,300 1,647 Climbing FlightAware ADS-B
Sat 11:12:05 AM 30.6118 -98.2091 323° Northwest 318 366 24,800 1,548 Climbing FlightAware ADS-B
Sat 11:12:16 AM 30.6254 -98.2208 323° Northwest 322 371 25,100 1,472 Climbing FlightAware ADS-B
Sat 11:12:58 AM 30.6761 -98.2646 323° Northwest 331 381 26,100 1,500 Climbing FlightAware ADS-B
Sat 11:14:56 AM 30.8288 -98.3967 323° Northwest 337 388 29,100 1,516 Climbing FlightAware ADS-B
Sat 11:16:04 AM 30.9205 -98.4764 323° Northwest 372 428 30,800 1,550 Climbing FlightAware ADS-B
Sat 11:16:56 AM 30.9931 -98.5395 323° Northwest 365 420 32,200 1,441 Climbing FlightAware ADS-B
Sat 11:19:03 AM 31.1647 -98.6895 323° Northwest 369 425 35,100 1,492 Climbing FlightAware ADS-B
Sat 11:20:05 AM 31.2476 -98.7619 323° Northwest 361 415 36,900 1,784 Climbing FlightAware ADS-B
Sat 11:20:54 AM 31.3107 -98.8173 323° Northwest 343 395 38,400 1,814 Climbing FlightAware ADS-B
Sat 11:21:31 AM 31.3571 -98.8581 323° Northwest 331 381 39,500 1,292 Climbing FlightAware ADS-B
Sat 11:24:09 AM 31.5420 -99.0225 323° Northwest 312 359 42,600 986 Climbing FlightAware ADS-B
Sat 11:25:04 AM 31.5831 -99.0850 323° Northwest 288 331 43,000 57 Climbing Houston Center
Sat 11:31:12 AM 31.9124 -99.6090 323° Northwest 337 388 43,000  Level FlightAware ADS-B
Sat 11:31:43 AM 31.9406 -99.6543 306° West 339 390 43,000  Level FlightAware ADS-B
Sat 11:32:16 AM 31.9712 -99.7033 306° West 338 389 43,000  Level FlightAware ADS-B
Sat 11:34:03 AM 32.0711 -99.8644 306° West 341 392 43,000  Level FlightAware ADS-B
Sat 11:35:23 AM 32.1386 -99.9753 306° West 346 398 43,000  Level Fort Worth Center
Sat 11:36:25 AM 32.1956 -100.0672 306° West 347 399 43,000  Level Fort Worth Center
Sat 11:37:27 AM 32.2525 -100.1594 306° West 346 398 43,000  Level Fort Worth Center
Sat 11:38:29 AM 32.3097 -100.2514 306° West 345 397 43,000  Level Fort Worth Center
Sat 11:39:31 AM 32.3656 -100.3442 305° West 345 397 43,000  Level Fort Worth Center
Sat 11:40:33 AM 32.4333 -100.4531 306° West 341 392 43,000  Level Fort Worth Center
Sat 11:41:35 AM 32.4881 -100.5444 305° West 339 390 43,000  Level Fort Worth Center
Sat 11:42:37 AM 32.5436 -100.6358 306° West 340 391 43,000  Level Fort Worth Center
Sat 11:43:39 AM 32.6008 -100.7283 306° West 345 397 43,000  Level Fort Worth Center
Sat 11:44:41 AM 32.6553 -100.8192 305° West 341 392 43,000  Level Fort Worth Center
Sat 11:45:43 AM 32.7103 -100.9100 306° West 338 389 43,000  Level Fort Worth Center
Sat 11:46:44 AM 32.7656 -101.0017 306° West 339 390 43,000  Level Fort Worth Center
Sat 11:47:46 AM 32.8314 -101.1106 306° West 338 389 43,000  Level Fort Worth Center
Sat 11:48:48 AM 32.8853 -101.2025 305° West 338 389 43,000  Level Fort Worth Center
Sat 11:49:50 AM 32.9408 -101.2939 306° West 339 390 43,000  Level Fort Worth Center
Sat 11:50:52 AM 32.9917 -101.3797 305° West 337 388 43,000  Level Fort Worth Center
Sat 11:51:54 AM 33.0447 -101.4697 305° West 335 386 43,000  Level Fort Worth Center
Sat 11:52:56 AM 33.1092 -101.5789 305° West 336 387 43,000  Level Fort Worth Center
Sat 11:53:58 AM 33.1622 -101.6689 305° West 334 384 43,000  Level Fort Worth Center
Sat 11:55:00 AM 33.2156 -101.7594 305° West 336 387 43,000  Level Fort Worth Center
Sat 11:56:02 AM 33.2681 -101.8497 305° West 334 384 43,000  Level Fort Worth Center
Sat 11:57:04 AM 33.3217 -101.9400 305° West 335 386 43,000  Level Fort Worth Center
Sat 11:58:06 AM 33.3861 -102.0497 305° West 338 389 43,000  Level Fort Worth Center
Sat 11:59:09 AM 33.4389 -102.1417 305° West 337 388 43,000  Level Fort Worth Center
Sat 12:00:11 PM 33.4931 -102.2336 305° West 340 391 43,000  Level Fort Worth Center
Sat 12:01:13 PM 33.5464 -102.3261 305° West 340 391 43,000  Level Fort Worth Center
Sat 12:02:15 PM 33.6017 -102.4175 306° West 340 391 43,000  Level Fort Worth Center
Sat 12:03:17 PM 33.6650 -102.5297 304° West 341 392 43,000  Level Fort Worth Center
Sat 12:04:19 PM 33.7181 -102.6222 305° West 339 390 43,000  Level Fort Worth Center
Sat 12:05:21 PM 33.7708 -102.7142 305° West 338 389 43,000  Level Fort Worth Center
Sat 12:06:23 PM 33.8239 -102.8061 305° West 337 388 43,000  Level Fort Worth Center
Sat 12:07:25 PM 33.8767 -102.8978 305° West 335 386 43,000  Level Fort Worth Center
Sat 12:08:27 PM 33.9400 -103.0103 304° West 339 390 43,000  Level Fort Worth Center
Sat 12:09:29 PM 33.9933 -103.1025 305° West 338 389 43,000 -48 Level Fort Worth Center
Sat 12:10:31 PM 34.0456 -103.1967 304° West 339 390 42,900 -532 Descending Fort Worth Center
Sat 12:11:33 PM 34.0989 -103.2906 304° West 340 391 41,900 -1,113 Descending Fort Worth Center
Sat 12:12:35 PM 34.1531 -103.3872 304° West 345 397 40,600 -1,306 Descending Fort Worth Center
Sat 12:13:37 PM 34.2094 -103.4858 305° West 354 407 39,200 -1,403 Descending Fort Worth Center
Sat 12:14:39 PM 34.2675 -103.5883 304° West 351 404 37,700 -1,548 Descending Fort Worth Center
Sat 12:15:41 PM 34.3289 -103.7000 304° West 338 389 36,000 -1,548 Descending Fort Worth Center
Sat 12:16:43 PM 34.3808 -103.7956 303° West 338 389 34,500 -1,452 Descending Fort Worth Center
Sat 12:17:45 PM 34.4372 -103.8933 305° West 349 402 33,000 -1,452 Descending Fort Worth Center
Sat 12:18:47 PM 34.4908 -103.9917 304° West 350 403 31,500 -1,440 Descending Fort Worth Center
Sat 12:19:50 PM 34.5489 -104.0953 304° West 365 420 30,000 -1,440 Descending Fort Worth Center
Sat 12:20:52 PM 34.6072 -104.2022 304° West 376 433 28,500 -968 Descending Fort Worth Center
Sat 12:21:54 PM 34.6692 -104.3158 304° West 379 436 28,000 -213 Descending Fort Worth Center
Sat 12:23:13 PM 34.7464 -104.4578 304° West 379 436 28,000  Level Albuquerque Center
Sat 12:24:15 PM 34.8058 -104.5661 304° West 379 436 28,000  Level Albuquerque Center
Sat 12:25:17 PM 34.8736 -104.6911 303° West 376 433 28,000  Level Albuquerque Center
Sat 12:26:18 PM 34.9478 -104.7897 313° West 385 443 28,000  Level Albuquerque Center
Sat 12:27:20 PM 35.0267 -104.8881 314° West 397 457 28,000  Level Albuquerque Center
Sat 12:28:22 PM 35.1050 -104.9869 314° West 399 459 28,000  Level Albuquerque Center
Sat 12:29:24 PM 35.1831 -105.0856 314° West 399 459 28,000 -976 Level Albuquerque Center
Sat 12:30:25 PM 35.2586 -105.1814 314° West 390 449 26,000 -1,951 Descending Albuquerque Center
Sat 12:31:27 PM 35.3333 -105.2753 314° West 383 441 24,000 -1,887 Descending Albuquerque Center
Sat 12:32:29 PM 35.4050 -105.3672 314° West 373 429 22,100 -1,790 Descending Albuquerque Center
Sat 12:33:31 PM 35.4736 -105.4544 314° West 357 411 20,300 -1,805 Descending Albuquerque Center
Sat 12:34:32 PM 35.5378 -105.5364 314° West 338 389 18,400 -2,000 Descending Albuquerque Center
Sat 12:35:34 PM 35.6019 -105.6189 314° West 305 351 16,200 -1,694 Descending Albuquerque Center
Sat 12:36:36 PM 35.6539 -105.6869 313° West 296 341 14,900 -581 Descending Albuquerque Center
Sat 12:37:38 PM 35.7042 -105.7503 314° West 273 314 15,000 48 Climbing Albuquerque Center
Sat 12:38:40 PM 35.7511 -105.8117 313° West 253 291 15,000  Level Albuquerque Center
Sat 12:39:42 PM 35.8092 -105.8858 314° West 252 290 15,000  Level Albuquerque Center
Sat 12:40:44 PM 35.8578 -105.9497 313° West 256 295 15,000  Level Albuquerque Center
Sat 12:41:45 PM 35.9019 -106.0064 314° West 240 276 15,000 -390 Level Albuquerque Center
Sat 12:42:47 PM 35.9544 -106.0544 323° Northwest 231 266 14,200 -1,065 Descending Albuquerque Center
Sat 12:43:49 PM 36.0156 -106.0900 335° Northwest 257 296 12,800 -1,403 Descending Albuquerque Center
Sat 12:44:51 PM 36.0397 -106.0219 66° East 252 290 11,300 -919 Descending Albuquerque Center
Sat 12:45:53 PM 35.9822 -106.0042 166° South 224 258 10,900 -194 Descending Albuquerque Center
Sat 12:46:55 PM 35.9108 -106.0103 184° South 216 249 10,900 -435 Level Albuquerque Center
Sat 12:47:57 PM 35.8497 -106.0172 185° South 224 258 10,000 -1,122 Descending Albuquerque Center
Sat 12:48:58 PM 35.7856 -106.0247 185° South 230 265 8,600 -732 Descending Albuquerque Center
Sat 12:50:00 PM 35.7325 -106.0311 186° South 204 235 8,500 -532 Descending Albuquerque Center
Sat 12:51:02 PM 35.6967 -106.0458 198° South 144 166 7,500 -629 Descending Albuquerque Center
Sat 12:52:04 PM 35.6617 -106.0611 200° South 135 155 7,200 -532 Descending Albuquerque Center
Sat 12:53:06 PM 35.6289 -106.0769 201° Southwest 125 144 6,400 -774 Descending Albuquerque Center

Login

Don't have an account? Register now (free) for customized features, flight alerts, and more!